createdAt,value
2022-08-07T00:08:44.436Z,12.50
2022-08-07T00:19:07.721Z,12.20
2022-08-07T00:29:43.116Z,12.10
2022-08-07T00:40:10.918Z,12.00
2022-08-07T00:50:46.683Z,11.90
2022-08-07T01:01:14.507Z,11.80
2022-08-07T01:12:23.617Z,11.80
2022-08-07T01:22:22.872Z,11.70
2022-08-07T01:32:51.294Z,11.30
2022-08-07T01:43:15.413Z,11.50
2022-08-07T01:54:09.328Z,11.60
2022-08-07T02:04:28.028Z,11.50
2022-08-07T02:14:57.911Z,11.50
2022-08-07T02:26:10.242Z,11.00
2022-08-07T02:36:30.567Z,10.70
2022-08-07T02:47:01.095Z,10.90
2022-08-07T02:57:28.595Z,11.00
2022-08-07T03:08:07.371Z,10.70
2022-08-07T03:18:36.272Z,10.30
2022-08-07T03:29:10.453Z,10.60
2022-08-07T03:39:58.969Z,10.50
2022-08-07T03:50:22.993Z,10.90
2022-08-07T04:00:54.895Z,11.30
2022-08-07T04:12:25.606Z,11.10
2022-08-07T04:22:12.262Z,11.80
2022-08-07T04:32:44.771Z,13.30
2022-08-07T04:43:10.305Z,14.60
2022-08-07T04:54:01.580Z,14.60
2022-08-07T05:04:33.999Z,14.80
2022-08-07T05:15:23.358Z,15.20
2022-08-07T05:26:10.520Z,16.20
2022-08-07T05:36:35.639Z,17.30
2022-08-07T05:47:01.202Z,18.20
2022-08-07T05:57:26.634Z,18.90
2022-08-07T06:08:14.648Z,19.80
2022-08-07T06:18:38.195Z,20.00
2022-08-07T06:29:01.367Z,20.60
2022-08-07T06:40:12.892Z,20.90
2022-08-07T06:50:12.069Z,20.70
2022-08-07T07:00:42.385Z,21.10
2022-08-07T07:11:13.821Z,21.90
2022-08-07T07:22:11.994Z,22.30
2022-08-07T07:32:35.331Z,22.90
2022-08-07T07:43:15.255Z,22.80
2022-08-07T07:53:45.055Z,23.40
2022-08-07T08:04:18.486Z,23.30
2022-08-07T08:14:41.914Z,24.20
2022-08-07T08:25:41.987Z,24.60
2022-08-07T08:36:06.500Z,23.30
2022-08-07T08:46:44.851Z,22.90
2022-08-07T08:57:13.467Z,24.40
2022-08-07T09:07:57.849Z,23.30
2022-08-07T09:18:53.317Z,22.50
2022-08-07T09:30:04.270Z,22.30
2022-08-07T09:40:20.773Z,23.60
2022-08-07T09:50:55.439Z,23.80
2022-08-07T10:01:52.631Z,22.60
2022-08-07T10:12:34.395Z,23.20
2022-08-07T10:23:18.855Z,23.50
2022-08-07T10:34:18.469Z,23.20
2022-08-07T10:44:59.745Z,22.50
2022-08-07T10:55:38.514Z,22.40
2022-08-07T11:06:08.421Z,23.30
2022-08-07T11:16:37.487Z,25.20
2022-08-07T11:27:08.320Z,26.50
2022-08-07T11:38:10.445Z,25.90
2022-08-07T11:49:27.861Z,25.20
2022-08-07T12:00:12.127Z,24.30
2022-08-07T12:10:48.157Z,25.70
2022-08-07T12:21:55.560Z,25.40
2022-08-07T12:32:22.914Z,24.60
2022-08-07T12:42:54.942Z,24.00
2022-08-07T12:53:25.268Z,26.50
2022-08-07T13:04:04.718Z,26.10
2022-08-07T13:14:36.774Z,27.50
2022-08-07T13:25:03.230Z,27.70
2022-08-07T13:36:01.317Z,26.60
2022-08-07T13:46:23.324Z,28.20
2022-08-07T13:56:51.916Z,28.70
2022-08-07T14:07:21.105Z,26.30
2022-08-07T14:18:27.257Z,29.30
2022-08-07T14:28:33.179Z,29.50
2022-08-07T14:40:17.752Z,26.10
2022-08-07T15:00:40.596Z,28.50
2022-08-07T15:11:07.654Z,27.20
2022-08-07T15:21:44.151Z,27.90
2022-08-07T15:32:11.659Z,28.70
2022-08-07T15:42:51.896Z,26.40
2022-08-07T15:53:24.746Z,26.50
2022-08-07T16:04:14.913Z,28.90
2022-08-07T16:14:59.300Z,28.80
2022-08-07T16:25:52.678Z,26.70
2022-08-07T16:36:31.409Z,26.80
2022-08-07T16:47:45.181Z,25.90
2022-08-07T16:58:17.354Z,24.90
2022-08-07T17:09:10.589Z,24.50
2022-08-07T17:20:02.253Z,24.80
2022-08-07T17:30:26.812Z,24.40
2022-08-07T17:40:59.746Z,23.50
2022-08-07T17:52:00.368Z,24.60
2022-08-07T18:02:32.650Z,24.70
2022-08-07T18:13:15.265Z,24.60
2022-08-07T18:23:57.508Z,23.80
2022-08-07T18:34:53.209Z,23.00
2022-08-07T18:45:44.694Z,22.20
2022-08-07T18:56:31.860Z,21.40
2022-08-07T19:06:59.113Z,21.10
2022-08-07T19:17:59.274Z,20.50
2022-08-07T19:28:30.086Z,19.90
2022-08-07T19:39:08.822Z,20.10
2022-08-07T19:49:56.715Z,19.60
2022-08-07T20:00:28.201Z,19.40
2022-08-07T20:10:55.969Z,19.00
2022-08-07T20:21:22.456Z,19.20
2022-08-07T20:31:46.940Z,18.60
2022-08-07T20:42:13.958Z,18.50
2022-08-07T20:52:51.442Z,18.50
2022-08-07T21:03:22.991Z,18.50
2022-08-07T21:14:20.079Z,18.50
2022-08-07T21:24:50.784Z,18.60
2022-08-07T21:35:34.888Z,18.30
2022-08-07T21:46:24.746Z,18.30
2022-08-07T21:57:05.179Z,18.20
2022-08-07T22:07:58.103Z,17.90
2022-08-07T22:18:25.004Z,17.40
2022-08-07T22:28:54.836Z,17.30
2022-08-07T22:39:28.319Z,17.00
2022-08-07T22:50:20.833Z,16.90
2022-08-07T23:01:08.052Z,16.50
2022-08-07T23:11:46.233Z,16.30
2022-08-07T23:22:18.528Z,15.80
2022-08-07T23:34:22.666Z,15.70
2022-08-07T23:44:18.126Z,15.50
2022-08-07T23:54:55.246Z,15.40
